createdAt,value
2022-09-14T00:01:25.167Z,2.70
2022-09-14T00:04:46.011Z,2.50
2022-09-14T00:07:58.869Z,2.10
2022-09-14T00:11:16.011Z,2.40
2022-09-14T00:14:45.145Z,2.67
2022-09-14T00:17:57.657Z,2.67
2022-09-14T00:21:14.420Z,2.22
2022-09-14T00:24:31.267Z,2.67
2022-09-14T00:28:00.108Z,2.40
2022-09-14T00:31:24.201Z,3.05
2022-09-14T00:34:33.327Z,3.40
2022-09-14T00:37:52.169Z,3.15
2022-09-14T00:44:56.805Z,2.47
2022-09-14T00:47:58.482Z,2.67
2022-09-14T00:51:00.194Z,2.72
2022-09-14T00:54:16.393Z,2.58
2022-09-14T00:57:49.384Z,2.63
2022-09-14T01:00:55.508Z,2.17
2022-09-14T01:03:59.904Z,2.50
2022-09-14T01:07:55.856Z,2.20
2022-09-14T01:11:18.989Z,2.60
2022-09-14T01:14:56.975Z,2.97
2022-09-14T01:18:21.131Z,3.00
2022-09-14T01:21:46.263Z,2.92
2022-09-14T01:25:08.280Z,2.53
2022-09-14T01:28:30.927Z,2.45
2022-09-14T01:31:53.821Z,2.27
2022-09-14T01:35:05.071Z,3.10
2022-09-14T01:38:39.351Z,4.22
2022-09-14T01:45:12.833Z,3.55
2022-09-14T01:48:27.668Z,3.30
2022-09-14T01:51:41.807Z,3.40
2022-09-14T01:55:03.040Z,3.17
2022-09-14T01:58:22.544Z,3.25
2022-09-14T02:01:39.586Z,3.00
2022-09-14T02:04:57.251Z,3.07
2022-09-14T02:08:12.210Z,2.90
2022-09-14T02:11:27.160Z,2.60
2022-09-14T02:14:32.883Z,2.40
2022-09-14T02:17:43.997Z,2.53
2022-09-14T02:21:03.990Z,2.10
2022-09-14T02:24:09.559Z,2.93
2022-09-14T02:27:51.498Z,3.30
2022-09-14T02:31:39.289Z,3.92
2022-09-14T02:35:08.087Z,3.75
2022-09-14T02:39:04.041Z,4.03
2022-09-14T02:42:21.133Z,4.13
2022-09-14T02:50:02.307Z,4.25
2022-09-14T03:00:53.064Z,3.77
2022-09-14T03:04:03.498Z,3.47
2022-09-14T03:07:47.211Z,3.08
2022-09-14T03:11:03.059Z,2.95
2022-09-14T03:14:16.437Z,2.80
2022-09-14T03:17:48.506Z,3.00
2022-09-14T03:21:09.937Z,3.40
2022-09-14T03:24:22.784Z,2.97
2022-09-14T03:27:57.514Z,3.10
2022-09-14T03:31:23.535Z,3.23
2022-09-14T03:34:29.616Z,3.17
2022-09-14T03:37:53.125Z,3.10
2022-09-14T03:41:05.175Z,3.12
2022-09-14T03:44:15.078Z,3.08
2022-09-14T03:47:46.475Z,2.87
2022-09-14T03:50:58.076Z,3.00
2022-09-14T03:53:59.767Z,2.92
2022-09-14T03:57:44.018Z,2.95
2022-09-14T04:00:57.892Z,3.28
2022-09-14T04:04:19.472Z,3.10
2022-09-14T04:07:54.309Z,3.93
2022-09-14T04:11:29.333Z,5.30
2022-09-14T04:14:33.745Z,3.60
2022-09-14T04:17:44.401Z,3.97
2022-09-14T04:20:55.013Z,3.23
2022-09-14T04:24:31.049Z,3.40
2022-09-14T04:27:46.072Z,3.50
2022-09-14T04:31:01.355Z,3.62
2022-09-14T04:34:14.456Z,3.78
2022-09-14T04:37:40.963Z,3.27
2022-09-14T04:40:46.597Z,3.73
2022-09-14T04:43:58.945Z,3.60
2022-09-14T04:47:49.078Z,3.95
2022-09-14T04:50:54.158Z,3.62
2022-09-14T04:54:02.636Z,4.17
2022-09-14T05:01:29.301Z,3.50
2022-09-14T05:04:31.285Z,3.90
2022-09-14T05:07:43.552Z,3.25
2022-09-14T05:10:45.237Z,3.23
2022-09-14T05:17:47.860Z,3.50
2022-09-14T05:24:43.945Z,3.50
2022-09-14T05:27:50.905Z,4.27
2022-09-14T05:31:17.770Z,4.27
2022-09-14T07:08:51.681Z,3.60
2022-09-14T08:21:09.607Z,4.17
2022-09-14T08:25:20.593Z,5.00
2022-09-14T08:29:14.898Z,6.40
2022-09-14T08:32:26.446Z,6.18
2022-09-14T12:13:38.930Z,4.78
2022-09-14T12:17:42.860Z,5.12
2022-09-14T12:25:28.922Z,4.20
2022-09-14T12:29:11.548Z,3.50
2022-09-14T12:32:56.793Z,3.03
2022-09-14T13:06:21.521Z,2.97
2022-09-14T13:13:32.792Z,3.40
2022-09-14T15:43:37.885Z,2.70
2022-09-14T15:51:59.363Z,2.97
2022-09-14T15:59:40.303Z,2.95
2022-09-14T20:13:15.413Z,5.63
